RPB7207 SKSP-SKBQ
Flight info
| Callsign | RPB7207 |
|---|---|
| Flight time | 1h 9m |
| Altitude | 37000 |
| Route | TIMRO3B TIMRO DCT ALPON DCT BUTES DCT VARON VARON2C |
| Aircraft | B738/M-SDE2E3FGHIRWXY/LB1 |
Departure
| Time | 2026-05-08 19:06 |
|---|---|
| Airport | Gustavo Rojas Pinilla International Airport (SKSP) |
Arrival
| Time | 2026-05-08 20:16 |
|---|---|
| Airport | Ernesto Cortissoz International Airport (SKBQ) |
| Time | Latitude | Longitude | Altitude | Speed | Heading |
|---|---|---|---|---|---|
| 2026-05-08 18:43 | 12.58673 | -81.70270 | 14 ft | 0 kts | 150° |
| 2026-05-08 18:58 | 12.58686 | -81.70278 | 14 ft | 4 kts | 148° |
| 2026-05-08 18:58 | 12.58709 | -81.70292 | 15 ft | 4 kts | 156° |
| 2026-05-08 18:59 | 12.58730 | -81.70297 | 16 ft | 4 kts | 216° |
| 2026-05-08 18:59 | 12.58735 | -81.70294 | 15 ft | 0 kts | 240° |
| 2026-05-08 19:01 | 12.58734 | -81.70296 | 14 ft | 1 kts | 240° |
| 2026-05-08 19:02 | 12.58721 | -81.70320 | 16 ft | 6 kts | 240° |
| 2026-05-08 19:02 | 12.58711 | -81.70373 | 14 ft | 9 kts | 288° |
| 2026-05-08 19:02 | 12.58731 | -81.70438 | 17 ft | 10 kts | 284° |
| 2026-05-08 19:02 | 12.58711 | -81.70512 | 18 ft | 12 kts | 240° |
| 2026-05-08 19:03 | 12.58662 | -81.70598 | 20 ft | 16 kts | 239° |
| 2026-05-08 19:03 | 12.58599 | -81.70707 | 27 ft | 20 kts | 239° |
| 2026-05-08 19:03 | 12.58518 | -81.70849 | 27 ft | 27 kts | 239° |
| 2026-05-08 19:03 | 12.58413 | -81.71031 | 30 ft | 33 kts | 240° |
| 2026-05-08 19:04 | 12.58285 | -81.71253 | 30 ft | 39 kts | 239° |
| 2026-05-08 19:04 | 12.58139 | -81.71508 | 27 ft | 42 kts | 239° |
| 2026-05-08 19:04 | 12.57994 | -81.71760 | 29 ft | 39 kts | 239° |
| 2026-05-08 19:04 | 12.57896 | -81.71931 | 31 ft | 18 kts | 239° |
| 2026-05-08 19:05 | 12.57824 | -81.71991 | 31 ft | 13 kts | 216° |
| 2026-05-08 19:05 | 12.57842 | -81.72030 | 30 ft | 8 kts | 53° |
| 2026-05-08 19:05 | 12.57852 | -81.72011 | 31 ft | 0 kts | 59° |
| 2026-05-08 19:05 | 12.57852 | -81.72010 | 31 ft | 0 kts | 59° |
| 2026-05-08 19:06 | 12.57886 | -81.71950 | 31 ft | 34 kts | 60° |
| 2026-05-08 19:06 | 12.58130 | -81.71523 | 27 ft | 103 kts | 59° |
| 2026-05-08 19:06 | 12.58586 | -81.70724 | 68 ft | 151 kts | 61° |
| 2026-05-08 19:06 | 12.59153 | -81.69809 | 687 ft | 154 kts | 58° |
| 2026-05-08 19:07 | 12.59771 | -81.68855 | 1221 ft | 166 kts | 59° |
| 2026-05-08 19:07 | 12.60420 | -81.67862 | 1883 ft | 170 kts | 59° |
| 2026-05-08 19:07 | 12.61102 | -81.66810 | 2447 ft | 183 kts | 63° |
| 2026-05-08 19:07 | 12.61343 | -81.65458 | 2654 ft | 209 kts | 98° |
| 2026-05-08 19:08 | 12.60998 | -81.63975 | 3054 ft | 221 kts | 103° |
| 2026-05-08 19:08 | 12.60605 | -81.62418 | 3463 ft | 233 kts | 104° |
| 2026-05-08 19:08 | 12.60157 | -81.60746 | 3849 ft | 250 kts | 104° |
| 2026-05-08 19:08 | 12.59685 | -81.59024 | 4558 ft | 257 kts | 104° |
| 2026-05-08 19:09 | 12.59198 | -81.57249 | 5286 ft | 262 kts | 104° |
| 2026-05-08 19:09 | 12.58703 | -81.55437 | 6017 ft | 266 kts | 104° |
| 2026-05-08 19:09 | 12.58204 | -81.53604 | 6753 ft | 269 kts | 104° |
| 2026-05-08 19:09 | 12.57700 | -81.51751 | 7480 ft | 271 kts | 104° |
| 2026-05-08 19:10 | 12.57192 | -81.49880 | 8185 ft | 275 kts | 104° |
| 2026-05-08 19:10 | 12.56678 | -81.47980 | 8879 ft | 278 kts | 104° |
| 2026-05-08 19:10 | 12.56158 | -81.46060 | 9569 ft | 282 kts | 104° |
| 2026-05-08 19:10 | 12.55632 | -81.44115 | 10210 ft | 287 kts | 104° |
| 2026-05-08 19:11 | 12.55081 | -81.42071 | 10386 ft | 309 kts | 104° |
| 2026-05-08 19:11 | 12.54491 | -81.39885 | 10530 ft | 329 kts | 104° |
| 2026-05-08 19:11 | 12.53868 | -81.37578 | 10845 ft | 341 kts | 104° |
| 2026-05-08 19:11 | 12.53237 | -81.35243 | 11382 ft | 345 kts | 104° |
| 2026-05-08 19:12 | 12.52596 | -81.32875 | 12029 ft | 347 kts | 104° |
| 2026-05-08 19:12 | 12.51948 | -81.30483 | 12668 ft | 350 kts | 104° |
| 2026-05-08 19:12 | 12.51296 | -81.28073 | 13250 ft | 354 kts | 104° |
| 2026-05-08 19:12 | 12.50636 | -81.25632 | 13842 ft | 358 kts | 104° |
| 2026-05-08 19:13 | 12.49969 | -81.23169 | 14408 ft | 361 kts | 104° |
| 2026-05-08 19:13 | 12.49296 | -81.20685 | 14984 ft | 364 kts | 104° |
| 2026-05-08 19:13 | 12.48616 | -81.18173 | 15526 ft | 368 kts | 104° |
| 2026-05-08 19:13 | 12.47928 | -81.15632 | 16060 ft | 372 kts | 104° |
| 2026-05-08 19:14 | 12.47231 | -81.13060 | 16631 ft | 375 kts | 104° |
| 2026-05-08 19:14 | 12.46530 | -81.10476 | 17191 ft | 378 kts | 104° |
| 2026-05-08 19:14 | 12.45832 | -81.07902 | 17695 ft | 382 kts | 104° |
| 2026-05-08 19:14 | 12.45116 | -81.05264 | 18173 ft | 387 kts | 104° |
| 2026-05-08 19:15 | 12.44392 | -81.02599 | 18638 ft | 389 kts | 104° |
| 2026-05-08 19:15 | 12.43665 | -80.99923 | 19163 ft | 390 kts | 104° |
| 2026-05-08 19:15 | 12.42936 | -80.97243 | 19651 ft | 392 kts | 104° |
| 2026-05-08 19:15 | 12.42204 | -80.94550 | 20110 ft | 394 kts | 104° |
| 2026-05-08 19:16 | 12.41470 | -80.91848 | 20597 ft | 395 kts | 104° |
| 2026-05-08 19:16 | 12.40732 | -80.89138 | 21083 ft | 396 kts | 103° |
| 2026-05-08 19:16 | 12.39992 | -80.86420 | 21557 ft | 397 kts | 103° |
| 2026-05-08 19:16 | 12.39499 | -80.84607 | 21852 ft | 398 kts | 103° |
| 2026-05-08 19:17 | 12.38501 | -80.80945 | 22463 ft | 401 kts | 103° |
| 2026-05-08 19:17 | 12.38006 | -80.79125 | 22752 ft | 402 kts | 103° |
| 2026-05-08 19:17 | 12.37253 | -80.76365 | 23179 ft | 404 kts | 103° |
| 2026-05-08 19:17 | 12.36250 | -80.72687 | 23695 ft | 406 kts | 103° |
| 2026-05-08 19:18 | 12.35489 | -80.69899 | 24003 ft | 408 kts | 103° |
| 2026-05-08 19:18 | 12.34971 | -80.67998 | 24198 ft | 411 kts | 103° |
| 2026-05-08 19:18 | 12.34200 | -80.65176 | 24485 ft | 414 kts | 103° |
| 2026-05-08 19:18 | 12.33433 | -80.62366 | 24776 ft | 416 kts | 103° |
| 2026-05-08 19:19 | 12.32649 | -80.59498 | 25071 ft | 419 kts | 103° |
| 2026-05-08 19:19 | 12.31862 | -80.56621 | 25356 ft | 422 kts | 104° |
| 2026-05-08 19:19 | 12.31068 | -80.53718 | 25643 ft | 425 kts | 104° |
| 2026-05-08 19:19 | 12.30271 | -80.50805 | 25927 ft | 427 kts | 104° |
| 2026-05-08 19:20 | 12.29466 | -80.47868 | 26198 ft | 430 kts | 104° |
| 2026-05-08 19:20 | 12.28932 | -80.45915 | 26374 ft | 432 kts | 104° |
| 2026-05-08 19:20 | 12.27841 | -80.41937 | 26745 ft | 435 kts | 104° |
| 2026-05-08 19:20 | 12.27021 | -80.38946 | 27019 ft | 438 kts | 104° |
| 2026-05-08 19:21 | 12.26198 | -80.35943 | 27282 ft | 440 kts | 104° |
| 2026-05-08 19:21 | 12.25378 | -80.32958 | 27544 ft | 443 kts | 104° |
| 2026-05-08 19:21 | 12.24544 | -80.29920 | 27804 ft | 445 kts | 104° |
| 2026-05-08 19:21 | 12.23705 | -80.26867 | 28054 ft | 447 kts | 104° |
| 2026-05-08 19:22 | 12.22862 | -80.23797 | 28310 ft | 450 kts | 104° |
| 2026-05-08 19:22 | 12.22011 | -80.20703 | 28536 ft | 452 kts | 104° |
| 2026-05-08 19:22 | 12.21156 | -80.17591 | 28755 ft | 455 kts | 104° |
| 2026-05-08 19:22 | 12.20295 | -80.14466 | 29029 ft | 456 kts | 104° |
| 2026-05-08 19:23 | 12.19434 | -80.11339 | 29309 ft | 458 kts | 104° |
| 2026-05-08 19:23 | 12.18571 | -80.08204 | 29503 ft | 461 kts | 104° |
| 2026-05-08 19:23 | 12.17698 | -80.05036 | 29695 ft | 464 kts | 104° |
| 2026-05-08 19:23 | 12.16823 | -80.01863 | 29967 ft | 464 kts | 104° |
| 2026-05-08 19:24 | 12.15946 | -79.98685 | 30186 ft | 465 kts | 104° |
| 2026-05-08 19:24 | 12.15067 | -79.95498 | 30386 ft | 467 kts | 104° |
| 2026-05-08 19:24 | 12.14186 | -79.92309 | 30718 ft | 465 kts | 104° |
| 2026-05-08 19:24 | 12.13310 | -79.89142 | 31112 ft | 462 kts | 104° |
| 2026-05-08 19:25 | 12.12437 | -79.85982 | 31359 ft | 463 kts | 104° |
| 2026-05-08 19:25 | 12.11559 | -79.82807 | 31568 ft | 464 kts | 104° |
| 2026-05-08 19:25 | 12.10683 | -79.79640 | 31925 ft | 462 kts | 104° |
| 2026-05-08 19:25 | 12.09811 | -79.76491 | 32285 ft | 460 kts | 104° |
| 2026-05-08 19:26 | 12.08937 | -79.73333 | 32487 ft | 463 kts | 104° |
| 2026-05-08 19:26 | 12.08070 | -79.70203 | 32743 ft | 463 kts | 104° |
| 2026-05-08 19:26 | 12.07196 | -79.67049 | 33135 ft | 460 kts | 105° |
| 2026-05-08 19:26 | 12.06323 | -79.63902 | 33478 ft | 459 kts | 105° |
| 2026-05-08 19:27 | 12.05450 | -79.60756 | 33713 ft | 461 kts | 105° |
| 2026-05-08 19:27 | 12.04575 | -79.57602 | 34013 ft | 460 kts | 104° |
| 2026-05-08 19:27 | 12.03705 | -79.54472 | 34334 ft | 458 kts | 105° |
| 2026-05-08 19:27 | 12.02837 | -79.51346 | 34565 ft | 458 kts | 105° |
| 2026-05-08 19:28 | 12.01965 | -79.48208 | 34783 ft | 459 kts | 105° |
| 2026-05-08 19:28 | 12.01094 | -79.45075 | 35064 ft | 457 kts | 105° |
| 2026-05-08 19:28 | 12.00225 | -79.41952 | 35351 ft | 456 kts | 105° |
| 2026-05-08 19:28 | 11.99367 | -79.38870 | 35531 ft | 458 kts | 105° |
| 2026-05-08 19:29 | 11.98495 | -79.35738 | 35740 ft | 458 kts | 105° |
| 2026-05-08 19:29 | 11.97625 | -79.32613 | 36017 ft | 457 kts | 105° |
| 2026-05-08 19:29 | 11.96757 | -79.29499 | 36287 ft | 456 kts | 105° |
| 2026-05-08 19:29 | 11.95888 | -79.26384 | 36518 ft | 456 kts | 105° |
| 2026-05-08 19:30 | 11.95020 | -79.23274 | 36751 ft | 455 kts | 105° |
| 2026-05-08 19:30 | 11.94150 | -79.20155 | 36888 ft | 457 kts | 106° |
| 2026-05-08 19:30 | 11.93275 | -79.17020 | 36880 ft | 459 kts | 106° |
| 2026-05-08 19:31 | 11.91530 | -79.10778 | 36871 ft | 459 kts | 106° |
| 2026-05-08 19:31 | 11.89791 | -79.04557 | 36877 ft | 453 kts | 106° |
| 2026-05-08 19:32 | 11.88058 | -78.98368 | 36884 ft | 453 kts | 106° |
| 2026-05-08 19:32 | 11.86327 | -78.92186 | 36881 ft | 453 kts | 106° |
| 2026-05-08 19:33 | 11.84592 | -78.85999 | 36880 ft | 453 kts | 106° |
| 2026-05-08 19:33 | 11.82853 | -78.79804 | 36878 ft | 454 kts | 106° |
| 2026-05-08 19:34 | 11.81112 | -78.73602 | 36877 ft | 455 kts | 106° |
| 2026-05-08 19:34 | 11.79385 | -78.67378 | 36874 ft | 456 kts | 105° |
| 2026-05-08 19:35 | 11.77779 | -78.61139 | 36879 ft | 458 kts | 105° |
| 2026-05-08 19:35 | 11.76181 | -78.54833 | 36874 ft | 459 kts | 105° |
| 2026-05-08 19:36 | 11.74565 | -78.48518 | 36879 ft | 460 kts | 105° |
| 2026-05-08 19:36 | 11.72934 | -78.42185 | 36876 ft | 461 kts | 105° |
| 2026-05-08 19:37 | 11.71306 | -78.35883 | 36865 ft | 462 kts | 105° |
| 2026-05-08 19:37 | 11.69666 | -78.29541 | 36873 ft | 462 kts | 105° |
| 2026-05-08 19:38 | 11.68026 | -78.23205 | 36869 ft | 462 kts | 105° |
| 2026-05-08 19:38 | 11.66386 | -78.16871 | 36866 ft | 461 kts | 105° |
| 2026-05-08 19:39 | 11.64746 | -78.10544 | 36865 ft | 461 kts | 105° |
| 2026-05-08 19:39 | 11.63108 | -78.04233 | 36863 ft | 460 kts | 105° |
| 2026-05-08 19:40 | 11.61470 | -77.97927 | 36866 ft | 459 kts | 105° |
| 2026-05-08 19:40 | 11.59844 | -77.91672 | 36853 ft | 459 kts | 105° |
| 2026-05-08 19:41 | 11.58209 | -77.85389 | 36867 ft | 458 kts | 105° |
| 2026-05-08 19:41 | 11.56570 | -77.79098 | 36867 ft | 458 kts | 105° |
| 2026-05-08 19:42 | 11.54932 | -77.72815 | 36863 ft | 459 kts | 105° |
| 2026-05-08 19:42 | 11.53291 | -77.66524 | 36858 ft | 459 kts | 105° |
| 2026-05-08 19:43 | 11.51647 | -77.60229 | 36858 ft | 459 kts | 105° |
| 2026-05-08 19:43 | 11.50000 | -77.53930 | 36859 ft | 460 kts | 105° |
| 2026-05-08 19:44 | 11.48360 | -77.47662 | 36855 ft | 461 kts | 105° |
| 2026-05-08 19:44 | 11.46706 | -77.41342 | 36856 ft | 461 kts | 105° |
| 2026-05-08 19:45 | 11.45143 | -77.34988 | 36847 ft | 462 kts | 104° |
| 2026-05-08 19:45 | 11.43631 | -77.28612 | 36845 ft | 463 kts | 104° |
| 2026-05-08 19:46 | 11.42107 | -77.22227 | 36852 ft | 463 kts | 104° |
| 2026-05-08 19:46 | 11.41337 | -77.19021 | 36460 ft | 469 kts | 104° |
| 2026-05-08 19:46 | 11.39778 | -77.12561 | 35343 ft | 469 kts | 104° |
| 2026-05-08 19:47 | 11.39001 | -77.09343 | 34920 ft | 465 kts | 103° |
| 2026-05-08 19:47 | 11.38228 | -77.06150 | 34488 ft | 462 kts | 103° |
| 2026-05-08 19:47 | 11.37473 | -77.03028 | 34045 ft | 459 kts | 103° |
| 2026-05-08 19:47 | 11.36711 | -76.99878 | 33577 ft | 456 kts | 103° |
| 2026-05-08 19:48 | 11.35955 | -76.96754 | 33117 ft | 453 kts | 103° |
| 2026-05-08 19:48 | 11.35202 | -76.93646 | 32672 ft | 449 kts | 103° |
| 2026-05-08 19:48 | 11.34457 | -76.90567 | 32239 ft | 446 kts | 103° |
| 2026-05-08 19:48 | 11.33716 | -76.87511 | 31821 ft | 442 kts | 103° |
| 2026-05-08 19:49 | 11.32980 | -76.84477 | 31403 ft | 439 kts | 103° |
| 2026-05-08 19:49 | 11.32251 | -76.81472 | 30993 ft | 435 kts | 103° |
| 2026-05-08 19:49 | 11.31527 | -76.78487 | 30585 ft | 432 kts | 102° |
| 2026-05-08 19:49 | 11.30808 | -76.75525 | 30181 ft | 429 kts | 102° |
| 2026-05-08 19:50 | 11.30092 | -76.72577 | 29743 ft | 427 kts | 102° |
| 2026-05-08 19:50 | 11.29382 | -76.69653 | 29281 ft | 423 kts | 102° |
| 2026-05-08 19:50 | 11.28678 | -76.66759 | 28840 ft | 419 kts | 102° |
| 2026-05-08 19:50 | 11.27990 | -76.63930 | 28440 ft | 414 kts | 102° |
| 2026-05-08 19:51 | 11.27300 | -76.61094 | 28018 ft | 411 kts | 102° |
| 2026-05-08 19:51 | 11.26615 | -76.58279 | 27607 ft | 407 kts | 102° |
| 2026-05-08 19:51 | 11.25913 | -76.55508 | 27321 ft | 400 kts | 103° |
| 2026-05-08 19:51 | 11.25185 | -76.52804 | 27068 ft | 392 kts | 103° |
| 2026-05-08 19:52 | 11.24455 | -76.50146 | 26817 ft | 386 kts | 104° |
| 2026-05-08 19:52 | 11.23734 | -76.47526 | 26523 ft | 381 kts | 103° |
| 2026-05-08 19:52 | 11.23022 | -76.44934 | 26159 ft | 379 kts | 103° |
| 2026-05-08 19:52 | 11.22317 | -76.42355 | 25781 ft | 376 kts | 103° |
| 2026-05-08 19:53 | 11.21620 | -76.39794 | 25402 ft | 374 kts | 103° |
| 2026-05-08 19:53 | 11.20926 | -76.37242 | 25023 ft | 372 kts | 103° |
| 2026-05-08 19:53 | 11.20237 | -76.34706 | 24643 ft | 371 kts | 103° |
| 2026-05-08 19:53 | 11.19550 | -76.32178 | 24247 ft | 370 kts | 103° |
| 2026-05-08 19:54 | 11.18866 | -76.29659 | 23860 ft | 369 kts | 103° |
| 2026-05-08 19:54 | 11.18182 | -76.27142 | 23482 ft | 367 kts | 103° |
| 2026-05-08 19:54 | 11.17510 | -76.24668 | 23041 ft | 366 kts | 103° |
| 2026-05-08 19:54 | 11.16832 | -76.22175 | 22630 ft | 364 kts | 103° |
| 2026-05-08 19:55 | 11.16163 | -76.19715 | 22401 ft | 356 kts | 103° |
| 2026-05-08 19:55 | 11.15503 | -76.17290 | 22037 ft | 354 kts | 103° |
| 2026-05-08 19:55 | 11.14849 | -76.14888 | 21678 ft | 351 kts | 103° |
| 2026-05-08 19:55 | 11.14199 | -76.12502 | 21311 ft | 349 kts | 103° |
| 2026-05-08 19:56 | 11.13553 | -76.10128 | 20948 ft | 347 kts | 103° |
| 2026-05-08 19:56 | 11.12909 | -76.07764 | 20587 ft | 345 kts | 103° |
| 2026-05-08 19:56 | 11.12269 | -76.05415 | 20224 ft | 343 kts | 103° |
| 2026-05-08 19:56 | 11.11632 | -76.03078 | 19864 ft | 342 kts | 103° |
| 2026-05-08 19:57 | 11.10997 | -76.00747 | 19506 ft | 340 kts | 103° |
| 2026-05-08 19:57 | 11.10364 | -75.98427 | 19142 ft | 340 kts | 103° |
| 2026-05-08 19:57 | 11.09733 | -75.96112 | 18783 ft | 339 kts | 104° |
| 2026-05-08 19:57 | 11.09103 | -75.93804 | 18439 ft | 337 kts | 103° |
| 2026-05-08 19:58 | 11.08475 | -75.91506 | 18047 ft | 337 kts | 104° |
| 2026-05-08 19:58 | 11.07848 | -75.89208 | 17644 ft | 336 kts | 104° |
| 2026-05-08 19:58 | 11.07222 | -75.86918 | 17270 ft | 334 kts | 104° |
| 2026-05-08 19:58 | 11.06609 | -75.84676 | 16916 ft | 332 kts | 103° |
| 2026-05-08 19:59 | 11.05993 | -75.82421 | 16554 ft | 330 kts | 103° |
| 2026-05-08 19:59 | 11.05379 | -75.80176 | 16199 ft | 328 kts | 104° |
| 2026-05-08 19:59 | 11.04769 | -75.77946 | 15853 ft | 326 kts | 103° |
| 2026-05-08 19:59 | 11.04161 | -75.75726 | 15507 ft | 324 kts | 103° |
| 2026-05-08 20:00 | 11.03535 | -75.73533 | 15192 ft | 321 kts | 106° |
| 2026-05-08 20:00 | 11.02814 | -75.71396 | 14916 ft | 318 kts | 107° |
| 2026-05-08 20:00 | 11.02056 | -75.69282 | 14585 ft | 316 kts | 108° |
| 2026-05-08 20:00 | 11.01294 | -75.67181 | 14256 ft | 315 kts | 108° |
| 2026-05-08 20:01 | 11.00540 | -75.65094 | 13925 ft | 314 kts | 107° |
| 2026-05-08 20:01 | 10.99790 | -75.63008 | 13583 ft | 313 kts | 107° |
| 2026-05-08 20:01 | 10.99058 | -75.60961 | 13207 ft | 311 kts | 107° |
| 2026-05-08 20:01 | 10.98321 | -75.58894 | 12845 ft | 310 kts | 107° |
| 2026-05-08 20:02 | 10.97588 | -75.56832 | 12501 ft | 308 kts | 107° |
| 2026-05-08 20:02 | 10.96863 | -75.54787 | 12155 ft | 306 kts | 107° |
| 2026-05-08 20:02 | 10.96141 | -75.52753 | 11824 ft | 304 kts | 107° |
| 2026-05-08 20:02 | 10.95425 | -75.50733 | 11486 ft | 303 kts | 108° |
| 2026-05-08 20:03 | 10.94710 | -75.48716 | 11145 ft | 302 kts | 108° |
| 2026-05-08 20:03 | 10.93999 | -75.46708 | 10803 ft | 302 kts | 108° |
| 2026-05-08 20:03 | 10.93287 | -75.44700 | 10475 ft | 301 kts | 108° |
| 2026-05-08 20:03 | 10.92585 | -75.42720 | 10327 ft | 294 kts | 108° |
| 2026-05-08 20:04 | 10.91900 | -75.40787 | 10176 ft | 287 kts | 109° |
| 2026-05-08 20:04 | 10.91230 | -75.38900 | 10052 ft | 280 kts | 109° |
| 2026-05-08 20:04 | 10.90581 | -75.37069 | 9798 ft | 278 kts | 109° |
| 2026-05-08 20:04 | 10.89924 | -75.35219 | 9514 ft | 277 kts | 109° |
| 2026-05-08 20:05 | 10.89270 | -75.33375 | 9225 ft | 276 kts | 109° |
| 2026-05-08 20:05 | 10.88617 | -75.31536 | 8938 ft | 276 kts | 109° |
| 2026-05-08 20:05 | 10.87967 | -75.29703 | 8649 ft | 275 kts | 109° |
| 2026-05-08 20:05 | 10.87317 | -75.27871 | 8365 ft | 274 kts | 109° |
| 2026-05-08 20:06 | 10.86669 | -75.26047 | 8087 ft | 274 kts | 110° |
| 2026-05-08 20:06 | 10.86022 | -75.24225 | 7794 ft | 273 kts | 110° |
| 2026-05-08 20:06 | 10.85385 | -75.22433 | 7524 ft | 273 kts | 110° |
| 2026-05-08 20:06 | 10.84741 | -75.20622 | 7233 ft | 272 kts | 110° |
| 2026-05-08 20:07 | 10.84097 | -75.18809 | 6953 ft | 272 kts | 110° |
| 2026-05-08 20:07 | 10.83453 | -75.16998 | 6655 ft | 273 kts | 110° |
| 2026-05-08 20:07 | 10.82808 | -75.15182 | 6374 ft | 273 kts | 110° |
| 2026-05-08 20:07 | 10.82164 | -75.13372 | 6093 ft | 270 kts | 110° |
| 2026-05-08 20:08 | 10.81745 | -75.12195 | 5887 ft | 262 kts | 110° |
| 2026-05-08 20:08 | 10.81141 | -75.10496 | 5619 ft | 248 kts | 110° |
| 2026-05-08 20:08 | 10.80571 | -75.08892 | 5340 ft | 234 kts | 110° |
| 2026-05-08 20:08 | 10.80025 | -75.07358 | 5088 ft | 226 kts | 111° |
| 2026-05-08 20:09 | 10.79499 | -75.05882 | 4844 ft | 219 kts | 110° |
| 2026-05-08 20:09 | 10.78980 | -75.04424 | 4618 ft | 219 kts | 111° |
| 2026-05-08 20:09 | 10.78458 | -75.02959 | 4356 ft | 221 kts | 110° |
| 2026-05-08 20:09 | 10.77943 | -75.01511 | 4226 ft | 214 kts | 111° |
| 2026-05-08 20:10 | 10.77451 | -75.00130 | 4114 ft | 207 kts | 111° |
| 2026-05-08 20:10 | 10.76957 | -74.98745 | 4014 ft | 205 kts | 110° |
| 2026-05-08 20:10 | 10.76480 | -74.97405 | 3936 ft | 204 kts | 110° |
| 2026-05-08 20:10 | 10.75995 | -74.96046 | 3852 ft | 204 kts | 111° |
| 2026-05-08 20:11 | 10.75512 | -74.94692 | 3761 ft | 204 kts | 110° |
| 2026-05-08 20:11 | 10.75028 | -74.93335 | 3641 ft | 206 kts | 110° |
| 2026-05-08 20:11 | 10.74567 | -74.91929 | 3428 ft | 211 kts | 100° |
| 2026-05-08 20:11 | 10.74807 | -74.90529 | 3270 ft | 200 kts | 55° |
| 2026-05-08 20:12 | 10.75763 | -74.89544 | 3075 ft | 196 kts | 42° |
| 2026-05-08 20:12 | 10.76777 | -74.88614 | 2816 ft | 195 kts | 41° |
| 2026-05-08 20:12 | 10.77799 | -74.87715 | 2574 ft | 194 kts | 40° |
| 2026-05-08 20:12 | 10.78825 | -74.86828 | 2327 ft | 193 kts | 39° |
| 2026-05-08 20:13 | 10.79835 | -74.85956 | 2094 ft | 185 kts | 40° |
| 2026-05-08 20:13 | 10.80789 | -74.85133 | 1853 ft | 176 kts | 39° |
| 2026-05-08 20:13 | 10.81704 | -74.84344 | 1641 ft | 171 kts | 39° |
| 2026-05-08 20:13 | 10.82608 | -74.83563 | 1421 ft | 170 kts | 39° |
| 2026-05-08 20:14 | 10.83466 | -74.82822 | 1219 ft | 160 kts | 39° |
| 2026-05-08 20:14 | 10.84294 | -74.82108 | 1018 ft | 154 kts | 39° |
| 2026-05-08 20:14 | 10.85111 | -74.81402 | 840 ft | 153 kts | 39° |
| 2026-05-08 20:14 | 10.85922 | -74.80696 | 657 ft | 154 kts | 39° |
| 2026-05-08 20:15 | 10.86735 | -74.80000 | 462 ft | 149 kts | 39° |
| 2026-05-08 20:15 | 10.87509 | -74.79332 | 248 ft | 144 kts | 38° |
| 2026-05-08 20:15 | 10.88262 | -74.78684 | 99 ft | 137 kts | 39° |
| 2026-05-08 20:15 | 10.88839 | -74.78191 | 84 ft | 77 kts | 40° |
| 2026-05-08 20:16 | 10.89120 | -74.77951 | 70 ft | 44 kts | 40° |
| 2026-05-08 20:16 | 10.89318 | -74.77780 | 75 ft | 27 kts | 40° |
| 2026-05-08 20:16 | 10.89380 | -74.77660 | 69 ft | 19 kts | 83° |
| 2026-05-08 20:16 | 10.89373 | -74.77564 | 64 ft | 11 kts | 123° |
| 2026-05-08 20:17 | 10.89302 | -74.77531 | 72 ft | 11 kts | 161° |
| 2026-05-08 20:17 | 10.89230 | -74.77504 | 73 ft | 11 kts | 160° |
| 2026-05-08 20:17 | 10.89157 | -74.77488 | 74 ft | 11 kts | 180° |
| 2026-05-08 20:17 | 10.89092 | -74.77516 | 75 ft | 10 kts | 218° |
| 2026-05-08 20:18 | 10.89038 | -74.77562 | 76 ft | 10 kts | 219° |
| 2026-05-08 20:18 | 10.88986 | -74.77606 | 70 ft | 10 kts | 220° |
| 2026-05-08 20:18 | 10.88935 | -74.77650 | 78 ft | 9 kts | 220° |
| 2026-05-08 20:18 | 10.88883 | -74.77693 | 82 ft | 10 kts | 219° |
| 2026-05-08 20:19 | 10.88823 | -74.77745 | 80 ft | 13 kts | 220° |
| 2026-05-08 20:19 | 10.88758 | -74.77801 | 86 ft | 10 kts | 217° |
| 2026-05-08 20:19 | 10.88696 | -74.77783 | 84 ft | 10 kts | 187° |
| 2026-05-08 20:19 | 10.88641 | -74.77822 | 83 ft | 10 kts | 221° |
| 2026-05-08 20:20 | 10.88599 | -74.77828 | 84 ft | 7 kts | 138° |
| 2026-05-08 20:20 | 10.88580 | -74.77806 | 85 ft | 2 kts | 131° |
| 2026-05-08 20:20 | 10.88579 | -74.77805 | 85 ft | 0 kts | 131° |